sensor_id;sensor_type;location;lat;lon;timestamp;P1;durP1;ratioP1;P2;durP2;ratioP2
52540;SDS011;56003;48.556;9.370;2022-11-28T00:00:22;1.43;;;1.07;;
52540;SDS011;56003;48.556;9.370;2022-11-28T00:02:48;1.93;;;1.40;;
52540;SDS011;56003;48.556;9.370;2022-11-28T00:05:13;4.40;;;1.40;;
52540;SDS011;56003;48.556;9.370;2022-11-28T00:07:38;0.83;;;0.70;;
52540;SDS011;56003;48.556;9.370;2022-11-28T00:10:04;0.50;;;0.40;;
52540;SDS011;56003;48.556;9.370;2022-11-28T00:12:31;0.40;;;0.30;;
52540;SDS011;56003;48.556;9.370;2022-11-28T00:14:57;4.20;;;2.50;;
52540;SDS011;56003;48.556;9.370;2022-11-28T00:17:23;2.43;;;1.17;;
52540;SDS011;56003;48.556;9.370;2022-11-28T00:19:48;0.40;;;0.40;;
52540;SDS011;56003;48.556;9.370;2022-11-28T00:22:13;0.40;;;0.30;;
52540;SDS011;56003;48.556;9.370;2022-11-28T00:24:39;0.50;;;0.30;;
52540;SDS011;56003;48.556;9.370;2022-11-28T00:27:04;0.63;;;0.57;;
52540;SDS011;56003;48.556;9.370;2022-11-28T00:29:29;0.77;;;0.77;;
52540;SDS011;56003;48.556;9.370;2022-11-28T00:31:55;2.10;;;1.97;;
52540;SDS011;56003;48.556;9.370;2022-11-28T00:34:20;1.03;;;0.80;;
52540;SDS011;56003;48.556;9.370;2022-11-28T00:36:46;6.37;;;3.33;;
52540;SDS011;56003;48.556;9.370;2022-11-28T00:39:12;4.20;;;1.93;;
52540;SDS011;56003;48.556;9.370;2022-11-28T00:41:37;1.43;;;1.23;;
52540;SDS011;56003;48.556;9.370;2022-11-28T00:44:03;2.07;;;1.30;;
52540;SDS011;56003;48.556;9.370;2022-11-28T00:46:28;2.80;;;1.23;;
52540;SDS011;56003;48.556;9.370;2022-11-28T00:48:54;2.20;;;1.23;;
52540;SDS011;56003;48.556;9.370;2022-11-28T00:51:23;0.60;;;0.60;;
52540;SDS011;56003;48.556;9.370;2022-11-28T00:53:51;1.13;;;1.07;;
52540;SDS011;56003;48.556;9.370;2022-11-28T00:56:18;4.87;;;1.57;;
52540;SDS011;56003;48.556;9.370;2022-11-28T00:58:45;2.30;;;1.93;;
52540;SDS011;56003;48.556;9.370;2022-11-28T01:01:14;2.40;;;2.30;;
52540;SDS011;56003;48.556;9.370;2022-11-28T01:03:41;0.60;;;0.60;;
52540;SDS011;56003;48.556;9.370;2022-11-28T01:06:08;8.53;;;1.70;;
52540;SDS011;56003;48.556;9.370;2022-11-28T01:08:35;1.20;;;1.00;;
52540;SDS011;56003;48.556;9.370;2022-11-28T01:11:00;3.00;;;1.20;;
52540;SDS011;56003;48.556;9.370;2022-11-28T01:13:26;2.40;;;2.00;;
52540;SDS011;56003;48.556;9.370;2022-11-28T01:15:51;1.73;;;1.60;;
52540;SDS011;56003;48.556;9.370;2022-11-28T01:18:17;1.27;;;0.90;;
52540;SDS011;56003;48.556;9.370;2022-11-28T01:20:42;2.53;;;1.90;;
52540;SDS011;56003;48.556;9.370;2022-11-28T01:23:07;0.93;;;0.80;;
52540;SDS011;56003;48.556;9.370;2022-11-28T01:25:33;0.67;;;0.67;;
52540;SDS011;56003;48.556;9.370;2022-11-28T01:27:58;2.07;;;1.97;;
52540;SDS011;56003;48.556;9.370;2022-11-28T01:30:24;1.33;;;1.23;;
52540;SDS011;56003;48.556;9.370;2022-11-28T01:32:49;1.50;;;1.40;;
52540;SDS011;56003;48.556;9.370;2022-11-28T01:35:15;1.30;;;1.30;;
52540;SDS011;56003;48.556;9.370;2022-11-28T01:37:40;0.60;;;0.60;;
52540;SDS011;56003;48.556;9.370;2022-11-28T01:40:06;6.10;;;0.90;;
52540;SDS011;56003;48.556;9.370;2022-11-28T01:42:32;0.60;;;0.40;;
52540;SDS011;56003;48.556;9.370;2022-11-28T01:45:01;1.53;;;1.43;;
52540;SDS011;56003;48.556;9.370;2022-11-28T01:47:31;2.53;;;1.83;;
52540;SDS011;56003;48.556;9.370;2022-11-28T01:49:57;1.73;;;0.93;;
52540;SDS011;56003;48.556;9.370;2022-11-28T01:52:24;0.77;;;0.67;;
52540;SDS011;56003;48.556;9.370;2022-11-28T01:54:52;0.60;;;0.60;;
52540;SDS011;56003;48.556;9.370;2022-11-28T01:57:22;6.17;;;0.80;;
52540;SDS011;56003;48.556;9.370;2022-11-28T01:59:58;0.63;;;0.63;;
52540;SDS011;56003;48.556;9.370;2022-11-28T02:02:33;3.43;;;3.03;;
52540;SDS011;56003;48.556;9.370;2022-11-28T02:05:03;0.77;;;0.73;;
52540;SDS011;56003;48.556;9.370;2022-11-28T02:07:28;1.60;;;1.50;;
52540;SDS011;56003;48.556;9.370;2022-11-28T02:09:54;2.57;;;2.13;;
52540;SDS011;56003;48.556;9.370;2022-11-28T02:15:03;1.00;;;1.00;;
52540;SDS011;56003;48.556;9.370;2022-11-28T02:17:59;0.47;;;0.43;;
52540;SDS011;56003;48.556;9.370;2022-11-28T02:24:03;1.17;;;1.07;;
52540;SDS011;56003;48.556;9.370;2022-11-28T02:43:05;1.47;;;1.07;;
52540;SDS011;56003;48.556;9.370;2022-11-28T02:48:26;2.40;;;2.20;;
52540;SDS011;56003;48.556;9.370;2022-11-28T02:51:01;1.17;;;1.07;;
52540;SDS011;56003;48.556;9.370;2022-11-28T02:53:34;3.77;;;0.70;;
52540;SDS011;56003;48.556;9.370;2022-11-28T02:56:01;2.00;;;1.90;;
52540;SDS011;56003;48.556;9.370;2022-11-28T02:58:27;1.37;;;1.27;;
52540;SDS011;56003;48.556;9.370;2022-11-28T03:00:53;0.53;;;0.53;;
52540;SDS011;56003;48.556;9.370;2022-11-28T03:16:41;0.40;;;0.30;;
52540;SDS011;56003;48.556;9.370;2022-11-28T03:19:20;4.57;;;2.43;;
52540;SDS011;56003;48.556;9.370;2022-11-28T03:24:43;3.80;;;1.43;;
52540;SDS011;56003;48.556;9.370;2022-11-28T03:27:13;0.73;;;0.73;;
52540;SDS011;56003;48.556;9.370;2022-11-28T03:29:43;1.80;;;1.33;;
52540;SDS011;56003;48.556;9.370;2022-11-28T03:32:13;0.53;;;0.50;;
52540;SDS011;56003;48.556;9.370;2022-11-28T03:34:44;2.87;;;1.73;;
52540;SDS011;56003;48.556;9.370;2022-11-28T03:37:15;1.73;;;1.63;;
52540;SDS011;56003;48.556;9.370;2022-11-28T03:39:46;2.43;;;1.17;;
52540;SDS011;56003;48.556;9.370;2022-11-28T03:44:44;1.60;;;1.47;;
52540;SDS011;56003;48.556;9.370;2022-11-28T03:47:16;6.53;;;3.07;;
52540;SDS011;56003;48.556;9.370;2022-11-28T03:49:43;0.60;;;0.50;;
52540;SDS011;56003;48.556;9.370;2022-11-28T03:52:19;1.13;;;0.50;;
52540;SDS011;56003;48.556;9.370;2022-11-28T03:55:00;0.80;;;0.57;;
52540;SDS011;56003;48.556;9.370;2022-11-28T04:00:03;0.50;;;0.40;;
52540;SDS011;56003;48.556;9.370;2022-11-28T04:05:39;2.30;;;1.43;;
52540;SDS011;56003;48.556;9.370;2022-11-28T04:11:12;0.80;;;0.63;;
52540;SDS011;56003;48.556;9.370;2022-11-28T04:13:41;0.87;;;0.83;;
52540;SDS011;56003;48.556;9.370;2022-11-28T04:16:23;1.53;;;1.43;;
52540;SDS011;56003;48.556;9.370;2022-11-28T04:19:14;2.40;;;2.17;;
52540;SDS011;56003;48.556;9.370;2022-11-28T04:21:54;0.90;;;0.90;;
52540;SDS011;56003;48.556;9.370;2022-11-28T04:24:46;1.50;;;0.77;;
52540;SDS011;56003;48.556;9.370;2022-11-28T04:27:16;1.07;;;0.97;;
52540;SDS011;56003;48.556;9.370;2022-11-28T04:29:48;0.93;;;0.93;;
52540;SDS011;56003;48.556;9.370;2022-11-28T04:32:17;1.00;;;0.90;;
52540;SDS011;56003;48.556;9.370;2022-11-28T04:34:46;0.50;;;0.47;;
52540;SDS011;56003;48.556;9.370;2022-11-28T04:37:16;1.33;;;1.27;;
52540;SDS011;56003;48.556;9.370;2022-11-28T04:39:44;1.40;;;0.93;;
52540;SDS011;56003;48.556;9.370;2022-11-28T04:42:16;2.27;;;2.07;;
52540;SDS011;56003;48.556;9.370;2022-11-28T04:44:53;1.33;;;1.30;;
52540;SDS011;56003;48.556;9.370;2022-11-28T04:47:23;1.07;;;1.07;;
52540;SDS011;56003;48.556;9.370;2022-11-28T04:49:49;3.57;;;1.30;;
52540;SDS011;56003;48.556;9.370;2022-11-28T04:52:19;2.83;;;1.10;;
52540;SDS011;56003;48.556;9.370;2022-11-28T04:55:06;2.80;;;2.60;;
52540;SDS011;56003;48.556;9.370;2022-11-28T04:57:41;1.07;;;1.07;;
52540;SDS011;56003;48.556;9.370;2022-11-28T05:00:11;1.00;;;1.00;;
52540;SDS011;56003;48.556;9.370;2022-11-28T05:02:39;1.53;;;1.37;;
52540;SDS011;56003;48.556;9.370;2022-11-28T05:05:14;0.87;;;0.87;;
52540;SDS011;56003;48.556;9.370;2022-11-28T05:07:41;1.47;;;1.37;;
52540;SDS011;56003;48.556;9.370;2022-11-28T05:10:07;1.57;;;1.27;;
52540;SDS011;56003;48.556;9.370;2022-11-28T05:12:35;2.30;;;1.90;;
52540;SDS011;56003;48.556;9.370;2022-11-28T05:15:00;4.30;;;1.53;;
52540;SDS011;56003;48.556;9.370;2022-11-28T05:17:26;1.40;;;1.03;;
52540;SDS011;56003;48.556;9.370;2022-11-28T05:19:51;2.40;;;2.20;;
52540;SDS011;56003;48.556;9.370;2022-11-28T05:22:16;0.60;;;0.60;;
52540;SDS011;56003;48.556;9.370;2022-11-28T05:24:41;1.90;;;1.80;;
52540;SDS011;56003;48.556;9.370;2022-11-28T05:27:07;1.13;;;1.13;;
52540;SDS011;56003;48.556;9.370;2022-11-28T05:29:32;4.60;;;0.77;;
52540;SDS011;56003;48.556;9.370;2022-11-28T05:31:58;1.17;;;1.07;;
52540;SDS011;56003;48.556;9.370;2022-11-28T05:34:23;0.40;;;0.20;;
52540;SDS011;56003;48.556;9.370;2022-11-28T05:36:48;1.53;;;1.53;;
52540;SDS011;56003;48.556;9.370;2022-11-28T05:39:14;2.53;;;2.33;;
52540;SDS011;56003;48.556;9.370;2022-11-28T05:41:39;1.53;;;1.43;;
52540;SDS011;56003;48.556;9.370;2022-11-28T05:44:05;0.67;;;0.67;;
52540;SDS011;56003;48.556;9.370;2022-11-28T05:46:30;1.03;;;1.03;;
52540;SDS011;56003;48.556;9.370;2022-11-28T05:48:55;1.13;;;1.03;;
52540;SDS011;56003;48.556;9.370;2022-11-28T05:51:21;0.50;;;0.40;;
52540;SDS011;56003;48.556;9.370;2022-11-28T05:53:48;1.63;;;1.40;;
52540;SDS011;56003;48.556;9.370;2022-11-28T05:56:14;1.33;;;1.17;;
52540;SDS011;56003;48.556;9.370;2022-11-28T05:58:41;1.13;;;1.03;;
52540;SDS011;56003;48.556;9.370;2022-11-28T06:03:46;0.50;;;0.47;;
52540;SDS011;56003;48.556;9.370;2022-11-28T06:06:15;0.40;;;0.30;;
52540;SDS011;56003;48.556;9.370;2022-11-28T06:08:45;0.50;;;0.30;;
52540;SDS011;56003;48.556;9.370;2022-11-28T06:11:12;0.50;;;0.40;;
52540;SDS011;56003;48.556;9.370;2022-11-28T06:13:38;0.60;;;0.50;;
52540;SDS011;56003;48.556;9.370;2022-11-28T06:16:11;6.23;;;1.07;;
52540;SDS011;56003;48.556;9.370;2022-11-28T06:18:38;0.90;;;0.90;;
52540;SDS011;56003;48.556;9.370;2022-11-28T06:21:05;1.17;;;1.03;;
52540;SDS011;56003;48.556;9.370;2022-11-28T06:23:31;0.40;;;0.37;;
52540;SDS011;56003;48.556;9.370;2022-11-28T06:25:57;0.50;;;0.50;;
52540;SDS011;56003;48.556;9.370;2022-11-28T06:28:28;1.97;;;0.67;;
52540;SDS011;56003;48.556;9.370;2022-11-28T06:30:53;0.60;;;0.60;;
52540;SDS011;56003;48.556;9.370;2022-11-28T06:33:19;1.57;;;0.80;;
52540;SDS011;56003;48.556;9.370;2022-11-28T06:35:44;0.93;;;0.90;;
52540;SDS011;56003;48.556;9.370;2022-11-28T06:38:09;0.70;;;0.70;;
52540;SDS011;56003;48.556;9.370;2022-11-28T06:40:36;0.83;;;0.83;;
52540;SDS011;56003;48.556;9.370;2022-11-28T06:43:03;0.87;;;0.80;;
52540;SDS011;56003;48.556;9.370;2022-11-28T06:45:28;1.07;;;0.70;;
52540;SDS011;56003;48.556;9.370;2022-11-28T06:47:54;0.40;;;0.30;;
52540;SDS011;56003;48.556;9.370;2022-11-28T06:50:19;0.90;;;0.90;;
52540;SDS011;56003;48.556;9.370;2022-11-28T06:52:44;0.50;;;0.50;;
52540;SDS011;56003;48.556;9.370;2022-11-28T06:55:10;0.50;;;0.40;;
52540;SDS011;56003;48.556;9.370;2022-11-28T06:57:35;1.70;;;1.60;;
52540;SDS011;56003;48.556;9.370;2022-11-28T07:00:02;2.43;;;2.07;;
52540;SDS011;56003;48.556;9.370;2022-11-28T07:02:29;1.63;;;1.17;;
52540;SDS011;56003;48.556;9.370;2022-11-28T07:04:54;2.43;;;1.47;;
52540;SDS011;56003;48.556;9.370;2022-11-28T07:07:19;2.80;;;2.63;;
52540;SDS011;56003;48.556;9.370;2022-11-28T07:09:45;1.90;;;1.80;;
52540;SDS011;56003;48.556;9.370;2022-11-28T07:12:10;1.63;;;1.53;;
52540;SDS011;56003;48.556;9.370;2022-11-28T07:14:35;1.90;;;1.80;;
52540;SDS011;56003;48.556;9.370;2022-11-28T07:17:00;11.83;;;2.40;;
52540;SDS011;56003;48.556;9.370;2022-11-28T07:19:26;9.63;;;2.30;;
52540;SDS011;56003;48.556;9.370;2022-11-28T07:21:51;1.40;;;1.30;;
52540;SDS011;56003;48.556;9.370;2022-11-28T07:24:17;2.13;;;1.90;;
52540;SDS011;56003;48.556;9.370;2022-11-28T07:26:43;3.17;;;1.60;;
52540;SDS011;56003;48.556;9.370;2022-11-28T07:29:14;0.80;;;0.67;;
52540;SDS011;56003;48.556;9.370;2022-11-28T07:31:41;2.53;;;1.43;;
52540;SDS011;56003;48.556;9.370;2022-11-28T07:34:07;4.20;;;2.13;;
52540;SDS011;56003;48.556;9.370;2022-11-28T07:36:33;0.73;;;0.73;;
52540;SDS011;56003;48.556;9.370;2022-11-28T07:38:59;1.77;;;1.67;;
52540;SDS011;56003;48.556;9.370;2022-11-28T07:41:27;1.67;;;1.57;;
52540;SDS011;56003;48.556;9.370;2022-11-28T07:43:54;1.07;;;1.00;;
52540;SDS011;56003;48.556;9.370;2022-11-28T07:46:21;3.80;;;3.37;;
52540;SDS011;56003;48.556;9.370;2022-11-28T07:48:47;3.60;;;2.33;;
52540;SDS011;56003;48.556;9.370;2022-11-28T07:51:16;1.83;;;1.70;;
52540;SDS011;56003;48.556;9.370;2022-11-28T07:53:44;1.23;;;1.13;;
52540;SDS011;56003;48.556;9.370;2022-11-28T07:56:11;1.23;;;1.13;;
52540;SDS011;56003;48.556;9.370;2022-11-28T07:58:42;0.73;;;0.73;;
52540;SDS011;56003;48.556;9.370;2022-11-28T08:01:10;1.40;;;0.90;;
52540;SDS011;56003;48.556;9.370;2022-11-28T08:03:39;1.90;;;1.50;;
52540;SDS011;56003;48.556;9.370;2022-11-28T08:06:05;1.60;;;1.50;;
52540;SDS011;56003;48.556;9.370;2022-11-28T08:08:31;4.23;;;2.13;;
52540;SDS011;56003;48.556;9.370;2022-11-28T08:10:58;2.70;;;2.10;;
52540;SDS011;56003;48.556;9.370;2022-11-28T08:13:25;1.03;;;1.03;;
52540;SDS011;56003;48.556;9.370;2022-11-28T08:15:51;1.50;;;1.47;;
52540;SDS011;56003;48.556;9.370;2022-11-28T08:18:17;2.10;;;1.60;;
52540;SDS011;56003;48.556;9.370;2022-11-28T08:20:42;2.23;;;2.13;;
52540;SDS011;56003;48.556;9.370;2022-11-28T08:23:08;4.63;;;1.30;;
52540;SDS011;56003;48.556;9.370;2022-11-28T08:25:35;1.23;;;1.13;;
52540;SDS011;56003;48.556;9.370;2022-11-28T08:28:01;3.93;;;2.73;;
52540;SDS011;56003;48.556;9.370;2022-11-28T08:30:27;0.40;;;0.30;;
52540;SDS011;56003;48.556;9.370;2022-11-28T08:32:52;3.10;;;2.87;;
52540;SDS011;56003;48.556;9.370;2022-11-28T08:35:18;1.87;;;1.63;;
52540;SDS011;56003;48.556;9.370;2022-11-28T08:37:43;0.70;;;0.70;;
52540;SDS011;56003;48.556;9.370;2022-11-28T08:40:09;2.20;;;2.07;;
52540;SDS011;56003;48.556;9.370;2022-11-28T08:42:35;1.27;;;1.13;;
52540;SDS011;56003;48.556;9.370;2022-11-28T08:45:00;2.40;;;2.20;;
52540;SDS011;56003;48.556;9.370;2022-11-28T08:47:26;1.37;;;1.27;;
52540;SDS011;56003;48.556;9.370;2022-11-28T08:49:51;0.97;;;0.90;;
52540;SDS011;56003;48.556;9.370;2022-11-28T08:52:16;2.20;;;2.00;;
52540;SDS011;56003;48.556;9.370;2022-11-28T08:54:42;1.93;;;1.73;;
52540;SDS011;56003;48.556;9.370;2022-11-28T08:57:07;1.60;;;1.30;;
52540;SDS011;56003;48.556;9.370;2022-11-28T08:59:32;1.73;;;1.60;;
52540;SDS011;56003;48.556;9.370;2022-11-28T09:01:58;1.17;;;1.10;;
52540;SDS011;56003;48.556;9.370;2022-11-28T09:04:23;2.20;;;1.33;;
52540;SDS011;56003;48.556;9.370;2022-11-28T09:06:49;3.73;;;1.50;;
52540;SDS011;56003;48.556;9.370;2022-11-28T09:09:14;5.63;;;1.80;;
52540;SDS011;56003;48.556;9.370;2022-11-28T09:11:40;2.17;;;2.00;;
52540;SDS011;56003;48.556;9.370;2022-11-28T09:14:05;1.93;;;1.83;;
52540;SDS011;56003;48.556;9.370;2022-11-28T09:16:31;1.33;;;1.33;;
52540;SDS011;56003;48.556;9.370;2022-11-28T09:18:56;1.63;;;1.53;;
52540;SDS011;56003;48.556;9.370;2022-11-28T09:21:23;0.60;;;0.40;;
52540;SDS011;56003;48.556;9.370;2022-11-28T09:23:49;2.40;;;1.47;;
52540;SDS011;56003;48.556;9.370;2022-11-28T09:26:15;6.00;;;2.80;;
52540;SDS011;56003;48.556;9.370;2022-11-28T09:28:45;1.97;;;1.87;;
52540;SDS011;56003;48.556;9.370;2022-11-28T09:31:11;1.53;;;1.43;;
52540;SDS011;56003;48.556;9.370;2022-11-28T09:33:37;3.60;;;3.27;;
52540;SDS011;56003;48.556;9.370;2022-11-28T09:36:10;2.10;;;1.87;;
52540;SDS011;56003;48.556;9.370;2022-11-28T09:38:40;4.00;;;2.30;;
52540;SDS011;56003;48.556;9.370;2022-11-28T09:41:29;2.57;;;2.37;;
52540;SDS011;56003;48.556;9.370;2022-11-28T09:44:02;1.30;;;1.20;;
52540;SDS011;56003;48.556;9.370;2022-11-28T09:46:36;2.00;;;1.73;;
52540;SDS011;56003;48.556;9.370;2022-11-28T09:49:03;4.73;;;3.07;;
52540;SDS011;56003;48.556;9.370;2022-11-28T09:51:46;2.70;;;2.37;;
52540;SDS011;56003;48.556;9.370;2022-11-28T09:57:17;3.57;;;2.20;;
52540;SDS011;56003;48.556;9.370;2022-11-28T09:59:48;2.23;;;1.50;;
52540;SDS011;56003;48.556;9.370;2022-11-28T10:02:28;1.10;;;1.00;;
52540;SDS011;56003;48.556;9.370;2022-11-28T10:07:48;3.17;;;1.57;;
52540;SDS011;56003;48.556;9.370;2022-11-28T10:13:21;4.93;;;1.27;;
52540;SDS011;56003;48.556;9.370;2022-11-28T10:21:19;6.53;;;2.40;;
52540;SDS011;56003;48.556;9.370;2022-11-28T10:23:46;3.37;;;2.33;;
52540;SDS011;56003;48.556;9.370;2022-11-28T10:26:19;2.37;;;2.20;;
52540;SDS011;56003;48.556;9.370;2022-11-28T10:28:52;5.43;;;1.83;;
52540;SDS011;56003;48.556;9.370;2022-11-28T10:31:28;0.83;;;0.80;;
52540;SDS011;56003;48.556;9.370;2022-11-28T10:36:38;1.30;;;1.20;;
52540;SDS011;56003;48.556;9.370;2022-11-28T10:39:14;2.10;;;0.87;;
52540;SDS011;56003;48.556;9.370;2022-11-28T10:41:51;1.50;;;0.70;;
52540;SDS011;56003;48.556;9.370;2022-11-28T10:47:40;2.03;;;0.63;;
52540;SDS011;56003;48.556;9.370;2022-11-28T10:52:58;1.20;;;1.10;;
52540;SDS011;56003;48.556;9.370;2022-11-28T10:55:35;2.17;;;2.07;;
52540;SDS011;56003;48.556;9.370;2022-11-28T11:00:36;2.10;;;2.00;;
52540;SDS011;56003;48.556;9.370;2022-11-28T11:03:02;5.03;;;2.23;;
52540;SDS011;56003;48.556;9.370;2022-11-28T11:05:33;4.37;;;3.30;;
52540;SDS011;56003;48.556;9.370;2022-11-28T11:08:19;3.00;;;2.80;;
52540;SDS011;56003;48.556;9.370;2022-11-28T11:10:50;2.20;;;1.27;;
52540;SDS011;56003;48.556;9.370;2022-11-28T11:15:53;3.20;;;3.00;;
52540;SDS011;56003;48.556;9.370;2022-11-28T11:19:08;4.50;;;4.20;;
52540;SDS011;56003;48.556;9.370;2022-11-28T11:23:46;6.23;;;2.30;;
52540;SDS011;56003;48.556;9.370;2022-11-28T11:26:26;1.33;;;1.23;;
52540;SDS011;56003;48.556;9.370;2022-11-28T11:28:54;1.63;;;0.87;;
52540;SDS011;56003;48.556;9.370;2022-11-28T11:33:45;4.10;;;1.57;;
52540;SDS011;56003;48.556;9.370;2022-11-28T11:36:46;1.80;;;0.77;;
52540;SDS011;56003;48.556;9.370;2022-11-28T11:41:35;1.20;;;0.57;;
52540;SDS011;56003;48.556;9.370;2022-11-28T11:44:35;0.60;;;0.40;;
52540;SDS011;56003;48.556;9.370;2022-11-28T11:52:22;2.37;;;1.87;;
52540;SDS011;56003;48.556;9.370;2022-11-28T11:54:55;1.93;;;1.80;;
52540;SDS011;56003;48.556;9.370;2022-11-28T11:57:31;4.33;;;2.70;;
52540;SDS011;56003;48.556;9.370;2022-11-28T12:02:45;1.90;;;1.80;;
52540;SDS011;56003;48.556;9.370;2022-11-28T12:05:17;4.50;;;2.97;;
52540;SDS011;56003;48.556;9.370;2022-11-28T12:07:55;2.10;;;1.90;;
52540;SDS011;56003;48.556;9.370;2022-11-28T12:10:27;3.80;;;3.43;;
52540;SDS011;56003;48.556;9.370;2022-11-28T12:12:55;3.53;;;2.00;;
52540;SDS011;56003;48.556;9.370;2022-11-28T12:15:41;6.13;;;3.10;;
52540;SDS011;56003;48.556;9.370;2022-11-28T12:26:09;2.30;;;2.10;;
52540;SDS011;56003;48.556;9.370;2022-11-28T12:37:20;2.43;;;2.23;;
52540;SDS011;56003;48.556;9.370;2022-11-28T12:42:28;3.03;;;2.83;;
52540;SDS011;56003;48.556;9.370;2022-11-28T12:47:59;2.50;;;2.30;;
52540;SDS011;56003;48.556;9.370;2022-11-28T12:50:57;4.63;;;2.20;;
52540;SDS011;56003;48.556;9.370;2022-11-28T12:53:36;5.70;;;3.00;;
52540;SDS011;56003;48.556;9.370;2022-11-28T12:58:57;3.20;;;2.97;;
52540;SDS011;56003;48.556;9.370;2022-11-28T13:04:42;2.53;;;1.60;;
52540;SDS011;56003;48.556;9.370;2022-11-28T13:12:46;2.20;;;1.87;;
52540;SDS011;56003;48.556;9.370;2022-11-28T13:15:38;3.23;;;2.93;;
52540;SDS011;56003;48.556;9.370;2022-11-28T13:18:18;1.97;;;1.87;;
52540;SDS011;56003;48.556;9.370;2022-11-28T13:20:50;4.77;;;2.90;;
52540;SDS011;56003;48.556;9.370;2022-11-28T13:23:32;3.63;;;2.40;;
52540;SDS011;56003;48.556;9.370;2022-11-28T13:26:11;4.93;;;3.50;;
52540;SDS011;56003;48.556;9.370;2022-11-28T13:29:21;3.13;;;2.30;;
52540;SDS011;56003;48.556;9.370;2022-11-28T13:34:45;3.77;;;3.53;;
52540;SDS011;56003;48.556;9.370;2022-11-28T13:37:14;4.53;;;2.07;;
52540;SDS011;56003;48.556;9.370;2022-11-28T13:39:47;4.40;;;3.57;;
52540;SDS011;56003;48.556;9.370;2022-11-28T13:44:54;6.00;;;3.80;;
52540;SDS011;56003;48.556;9.370;2022-11-28T13:47:25;4.27;;;3.53;;
52540;SDS011;56003;48.556;9.370;2022-11-28T13:55:37;6.87;;;4.37;;
52540;SDS011;56003;48.556;9.370;2022-11-28T14:00:43;1.83;;;1.73;;
52540;SDS011;56003;48.556;9.370;2022-11-28T14:03:28;3.33;;;3.03;;
52540;SDS011;56003;48.556;9.370;2022-11-28T14:05:57;6.10;;;3.30;;
52540;SDS011;56003;48.556;9.370;2022-11-28T14:08:34;7.00;;;4.70;;
52540;SDS011;56003;48.556;9.370;2022-11-28T14:11:08;3.43;;;2.53;;
52540;SDS011;56003;48.556;9.370;2022-11-28T14:14:06;3.20;;;2.87;;
52540;SDS011;56003;48.556;9.370;2022-11-28T14:25:25;10.83;;;3.53;;
52540;SDS011;56003;48.556;9.370;2022-11-28T14:28:04;4.07;;;2.87;;
52540;SDS011;56003;48.556;9.370;2022-11-28T14:30:41;8.00;;;5.13;;
52540;SDS011;56003;48.556;9.370;2022-11-28T14:33:42;7.10;;;3.13;;
52540;SDS011;56003;48.556;9.370;2022-11-28T14:49:48;6.67;;;3.37;;
52540;SDS011;56003;48.556;9.370;2022-11-28T14:52:38;9.87;;;2.87;;
52540;SDS011;56003;48.556;9.370;2022-11-28T14:55:13;3.67;;;2.20;;
52540;SDS011;56003;48.556;9.370;2022-11-28T14:57:55;3.20;;;3.00;;
52540;SDS011;56003;48.556;9.370;2022-11-28T15:00:23;6.00;;;4.10;;
52540;SDS011;56003;48.556;9.370;2022-11-28T15:05:48;3.70;;;3.50;;
52540;SDS011;56003;48.556;9.370;2022-11-28T15:08:23;3.23;;;2.93;;
52540;SDS011;56003;48.556;9.370;2022-11-28T15:11:03;4.30;;;4.00;;
52540;SDS011;56003;48.556;9.370;2022-11-28T15:16:29;4.60;;;3.10;;
52540;SDS011;56003;48.556;9.370;2022-11-28T15:19:04;2.17;;;2.00;;
52540;SDS011;56003;48.556;9.370;2022-11-28T15:21:43;3.40;;;2.80;;
52540;SDS011;56003;48.556;9.370;2022-11-28T15:24:13;2.10;;;1.60;;
52540;SDS011;56003;48.556;9.370;2022-11-28T15:26:41;2.00;;;1.37;;
52540;SDS011;56003;48.556;9.370;2022-11-28T15:29:17;1.63;;;1.53;;
52540;SDS011;56003;48.556;9.370;2022-11-28T15:31:45;9.47;;;5.37;;
52540;SDS011;56003;48.556;9.370;2022-11-28T15:34:13;10.87;;;5.77;;
52540;SDS011;56003;48.556;9.370;2022-11-28T15:37:06;4.80;;;4.40;;
52540;SDS011;56003;48.556;9.370;2022-11-28T15:39:40;3.60;;;3.30;;
52540;SDS011;56003;48.556;9.370;2022-11-28T15:44:58;5.97;;;3.57;;
52540;SDS011;56003;48.556;9.370;2022-11-28T15:47:28;2.43;;;2.23;;
52540;SDS011;56003;48.556;9.370;2022-11-28T15:50:09;5.40;;;4.73;;
52540;SDS011;56003;48.556;9.370;2022-11-28T15:52:51;5.97;;;4.53;;
52540;SDS011;56003;48.556;9.370;2022-11-28T15:55:20;11.33;;;4.77;;
52540;SDS011;56003;48.556;9.370;2022-11-28T15:57:47;6.40;;;3.60;;
52540;SDS011;56003;48.556;9.370;2022-11-28T16:00:16;13.07;;;3.60;;
52540;SDS011;56003;48.556;9.370;2022-11-28T16:02:43;4.47;;;3.70;;
52540;SDS011;56003;48.556;9.370;2022-11-28T16:05:16;5.20;;;3.90;;
52540;SDS011;56003;48.556;9.370;2022-11-28T16:07:49;9.10;;;7.63;;
52540;SDS011;56003;48.556;9.370;2022-11-28T16:10:25;8.00;;;4.73;;
52540;SDS011;56003;48.556;9.370;2022-11-28T16:13:00;7.70;;;4.70;;
52540;SDS011;56003;48.556;9.370;2022-11-28T16:15:28;6.03;;;5.53;;
52540;SDS011;56003;48.556;9.370;2022-11-28T16:17:54;3.97;;;3.60;;
52540;SDS011;56003;48.556;9.370;2022-11-28T16:20:22;4.40;;;3.97;;
52540;SDS011;56003;48.556;9.370;2022-11-28T16:22:56;3.27;;;2.67;;
52540;SDS011;56003;48.556;9.370;2022-11-28T16:25:26;4.67;;;2.97;;
52540;SDS011;56003;48.556;9.370;2022-11-28T16:27:54;2.80;;;2.60;;
52540;SDS011;56003;48.556;9.370;2022-11-28T16:32:46;5.13;;;2.40;;
52540;SDS011;56003;48.556;9.370;2022-11-28T16:35:22;2.40;;;1.97;;
52540;SDS011;56003;48.556;9.370;2022-11-28T16:37:51;2.13;;;2.03;;
52540;SDS011;56003;48.556;9.370;2022-11-28T16:40:18;3.47;;;2.40;;
52540;SDS011;56003;48.556;9.370;2022-11-28T16:42:51;3.07;;;2.87;;
52540;SDS011;56003;48.556;9.370;2022-11-28T16:45:19;3.57;;;3.23;;
52540;SDS011;56003;48.556;9.370;2022-11-28T16:47:53;6.60;;;4.50;;
52540;SDS011;56003;48.556;9.370;2022-11-28T16:50:24;3.43;;;3.17;;
52540;SDS011;56003;48.556;9.370;2022-11-28T16:52:54;5.57;;;2.77;;
52540;SDS011;56003;48.556;9.370;2022-11-28T16:58:08;8.53;;;3.00;;
52540;SDS011;56003;48.556;9.370;2022-11-28T17:00:37;3.03;;;2.80;;
52540;SDS011;56003;48.556;9.370;2022-11-28T17:03:04;6.93;;;3.83;;
52540;SDS011;56003;48.556;9.370;2022-11-28T17:05:30;2.80;;;1.70;;
52540;SDS011;56003;48.556;9.370;2022-11-28T17:07:56;3.20;;;3.00;;
52540;SDS011;56003;48.556;9.370;2022-11-28T17:10:22;6.83;;;3.70;;
52540;SDS011;56003;48.556;9.370;2022-11-28T17:12:50;6.90;;;4.57;;
52540;SDS011;56003;48.556;9.370;2022-11-28T17:15:17;2.97;;;2.60;;
52540;SDS011;56003;48.556;9.370;2022-11-28T17:17:44;6.37;;;2.80;;
52540;SDS011;56003;48.556;9.370;2022-11-28T17:20:13;2.20;;;2.10;;
52540;SDS011;56003;48.556;9.370;2022-11-28T17:22:40;1.70;;;1.60;;
52540;SDS011;56003;48.556;9.370;2022-11-28T17:25:17;2.00;;;1.80;;
52540;SDS011;56003;48.556;9.370;2022-11-28T17:27:45;2.03;;;1.80;;
52540;SDS011;56003;48.556;9.370;2022-11-28T17:30:12;1.60;;;1.50;;
52540;SDS011;56003;48.556;9.370;2022-11-28T17:32:38;2.50;;;1.73;;
52540;SDS011;56003;48.556;9.370;2022-11-28T17:35:09;9.50;;;2.20;;
52540;SDS011;56003;48.556;9.370;2022-11-28T17:37:37;1.77;;;1.20;;
52540;SDS011;56003;48.556;9.370;2022-11-28T17:40:03;6.10;;;2.97;;
52540;SDS011;56003;48.556;9.370;2022-11-28T17:42:47;6.93;;;3.70;;
52540;SDS011;56003;48.556;9.370;2022-11-28T17:45:13;3.47;;;3.17;;
52540;SDS011;56003;48.556;9.370;2022-11-28T17:47:39;13.80;;;9.23;;
52540;SDS011;56003;48.556;9.370;2022-11-28T17:50:04;5.60;;;4.97;;
52540;SDS011;56003;48.556;9.370;2022-11-28T17:52:30;7.70;;;4.60;;
52540;SDS011;56003;48.556;9.370;2022-11-28T17:54:56;4.73;;;4.33;;
52540;SDS011;56003;48.556;9.370;2022-11-28T17:57:28;2.27;;;2.10;;
52540;SDS011;56003;48.556;9.370;2022-11-28T17:59:54;6.83;;;2.03;;
52540;SDS011;56003;48.556;9.370;2022-11-28T18:02:20;3.50;;;3.20;;
52540;SDS011;56003;48.556;9.370;2022-11-28T18:04:45;2.60;;;2.33;;
52540;SDS011;56003;48.556;9.370;2022-11-28T18:07:11;3.87;;;3.53;;